sensor_id;sensor_type;location;lat;lon;timestamp;P1;durP1;ratioP1;P2;durP2;ratioP2
65035;SDS011;51603;49.300;8.880;2022-07-22T00:02:07;10.47;;;9.47;;
65035;SDS011;51603;49.300;8.880;2022-07-22T00:04:33;9.10;;;8.40;;
65035;SDS011;51603;49.300;8.880;2022-07-22T00:06:58;9.47;;;8.63;;
65035;SDS011;51603;49.300;8.880;2022-07-22T00:09:24;9.80;;;9.00;;
65035;SDS011;51603;49.300;8.880;2022-07-22T00:11:49;10.97;;;9.97;;
65035;SDS011;51603;49.300;8.880;2022-07-22T00:14:15;9.67;;;8.83;;
65035;SDS011;51603;49.300;8.880;2022-07-22T00:16:41;8.43;;;7.70;;
65035;SDS011;51603;49.300;8.880;2022-07-22T00:19:06;9.70;;;8.90;;
65035;SDS011;51603;49.300;8.880;2022-07-22T00:21:32;9.63;;;8.80;;
65035;SDS011;51603;49.300;8.880;2022-07-22T00:23:57;10.03;;;9.13;;
65035;SDS011;51603;49.300;8.880;2022-07-22T00:26:23;10.17;;;9.27;;
65035;SDS011;51603;49.300;8.880;2022-07-22T00:28:49;10.70;;;9.90;;
65035;SDS011;51603;49.300;8.880;2022-07-22T00:31:14;9.97;;;9.07;;
65035;SDS011;51603;49.300;8.880;2022-07-22T00:33:40;10.87;;;9.97;;
65035;SDS011;51603;49.300;8.880;2022-07-22T00:36:06;10.90;;;10.00;;
65035;SDS011;51603;49.300;8.880;2022-07-22T00:38:32;10.00;;;9.10;;
65035;SDS011;51603;49.300;8.880;2022-07-22T00:40:58;9.60;;;8.80;;
65035;SDS011;51603;49.300;8.880;2022-07-22T00:43:23;8.90;;;8.20;;
65035;SDS011;51603;49.300;8.880;2022-07-22T00:45:49;10.83;;;9.87;;
65035;SDS011;51603;49.300;8.880;2022-07-22T00:48:15;10.87;;;9.63;;
65035;SDS011;51603;49.300;8.880;2022-07-22T00:50:41;11.43;;;10.43;;
65035;SDS011;51603;49.300;8.880;2022-07-22T00:53:07;10.17;;;9.20;;
65035;SDS011;51603;49.300;8.880;2022-07-22T00:55:33;10.30;;;9.43;;
65035;SDS011;51603;49.300;8.880;2022-07-22T00:57:59;9.90;;;9.00;;
65035;SDS011;51603;49.300;8.880;2022-07-22T01:03:47;10.37;;;9.47;;
65035;SDS011;51603;49.300;8.880;2022-07-22T01:06:13;9.70;;;8.90;;
65035;SDS011;51603;49.300;8.880;2022-07-22T01:08:39;9.20;;;8.50;;
65035;SDS011;51603;49.300;8.880;2022-07-22T01:11:12;11.00;;;9.70;;
65035;SDS011;51603;49.300;8.880;2022-07-22T01:13:40;16.50;;;9.83;;
65035;SDS011;51603;49.300;8.880;2022-07-22T01:16:07;11.87;;;10.77;;
65035;SDS011;51603;49.300;8.880;2022-07-22T01:18:34;10.90;;;10.00;;
65035;SDS011;51603;49.300;8.880;2022-07-22T01:21:00;10.70;;;9.80;;
65035;SDS011;51603;49.300;8.880;2022-07-22T01:23:26;11.93;;;10.30;;
65035;SDS011;51603;49.300;8.880;2022-07-22T01:25:52;9.20;;;8.37;;
65035;SDS011;51603;49.300;8.880;2022-07-22T01:28:17;11.70;;;10.03;;
65035;SDS011;51603;49.300;8.880;2022-07-22T01:30:43;11.00;;;10.03;;
65035;SDS011;51603;49.300;8.880;2022-07-22T01:33:09;10.27;;;9.37;;
65035;SDS011;51603;49.300;8.880;2022-07-22T01:35:34;10.87;;;9.77;;
65035;SDS011;51603;49.300;8.880;2022-07-22T01:38:00;11.20;;;10.30;;
65035;SDS011;51603;49.300;8.880;2022-07-22T01:40:25;11.37;;;10.37;;
65035;SDS011;51603;49.300;8.880;2022-07-22T01:42:51;10.67;;;9.80;;
65035;SDS011;51603;49.300;8.880;2022-07-22T01:45:16;11.70;;;10.50;;
65035;SDS011;51603;49.300;8.880;2022-07-22T01:47:42;11.50;;;10.40;;
65035;SDS011;51603;49.300;8.880;2022-07-22T01:50:08;10.57;;;9.77;;
65035;SDS011;51603;49.300;8.880;2022-07-22T01:52:36;9.83;;;9.03;;
65035;SDS011;51603;49.300;8.880;2022-07-22T01:55:04;10.33;;;9.50;;
65035;SDS011;51603;49.300;8.880;2022-07-22T01:57:31;12.30;;;9.70;;
65035;SDS011;51603;49.300;8.880;2022-07-22T01:59:57;11.17;;;10.07;;
65035;SDS011;51603;49.300;8.880;2022-07-22T02:02:22;10.60;;;9.80;;
65035;SDS011;51603;49.300;8.880;2022-07-22T02:04:48;11.43;;;10.20;;
65035;SDS011;51603;49.300;8.880;2022-07-22T02:07:13;11.20;;;10.27;;
65035;SDS011;51603;49.300;8.880;2022-07-22T02:09:39;10.43;;;9.43;;
65035;SDS011;51603;49.300;8.880;2022-07-22T02:12:04;11.33;;;10.40;;
65035;SDS011;51603;49.300;8.880;2022-07-22T02:14:30;10.47;;;9.57;;
65035;SDS011;51603;49.300;8.880;2022-07-22T02:16:55;10.40;;;9.50;;
65035;SDS011;51603;49.300;8.880;2022-07-22T02:19:21;11.10;;;10.10;;
65035;SDS011;51603;49.300;8.880;2022-07-22T02:21:47;12.20;;;11.10;;
65035;SDS011;51603;49.300;8.880;2022-07-22T02:24:12;12.33;;;11.33;;
65035;SDS011;51603;49.300;8.880;2022-07-22T02:26:39;12.03;;;10.83;;
65035;SDS011;51603;49.300;8.880;2022-07-22T02:29:05;13.27;;;12.10;;
65035;SDS011;51603;49.300;8.880;2022-07-22T02:31:30;12.73;;;11.40;;
65035;SDS011;51603;49.300;8.880;2022-07-22T02:33:56;11.60;;;10.47;;
65035;SDS011;51603;49.300;8.880;2022-07-22T02:36:21;14.03;;;12.63;;
65035;SDS011;51603;49.300;8.880;2022-07-22T02:38:47;12.27;;;11.17;;
65035;SDS011;51603;49.300;8.880;2022-07-22T02:41:13;10.30;;;9.40;;
65035;SDS011;51603;49.300;8.880;2022-07-22T02:43:38;11.47;;;10.37;;
65035;SDS011;51603;49.300;8.880;2022-07-22T02:46:04;11.67;;;10.47;;
65035;SDS011;51603;49.300;8.880;2022-07-22T02:48:29;11.63;;;10.47;;
65035;SDS011;51603;49.300;8.880;2022-07-22T02:50:55;11.90;;;10.80;;
65035;SDS011;51603;49.300;8.880;2022-07-22T02:53:20;11.23;;;10.33;;
65035;SDS011;51603;49.300;8.880;2022-07-22T02:55:46;12.00;;;10.90;;
65035;SDS011;51603;49.300;8.880;2022-07-22T02:58:12;12.00;;;11.00;;
65035;SDS011;51603;49.300;8.880;2022-07-22T03:00:37;12.47;;;11.27;;
65035;SDS011;51603;49.300;8.880;2022-07-22T03:03:03;11.50;;;10.50;;
65035;SDS011;51603;49.300;8.880;2022-07-22T03:05:29;12.67;;;11.60;;
65035;SDS011;51603;49.300;8.880;2022-07-22T03:07:55;10.80;;;9.70;;
65035;SDS011;51603;49.300;8.880;2022-07-22T03:10:20;11.70;;;10.77;;
65035;SDS011;51603;49.300;8.880;2022-07-22T03:12:46;12.73;;;11.50;;
65035;SDS011;51603;49.300;8.880;2022-07-22T03:15:11;12.53;;;11.53;;
65035;SDS011;51603;49.300;8.880;2022-07-22T03:17:37;12.33;;;11.13;;
65035;SDS011;51603;49.300;8.880;2022-07-22T03:20:06;12.27;;;11.20;;
65035;SDS011;51603;49.300;8.880;2022-07-22T03:22:33;12.60;;;11.60;;
65035;SDS011;51603;49.300;8.880;2022-07-22T03:25:00;12.77;;;10.80;;
65035;SDS011;51603;49.300;8.880;2022-07-22T03:27:26;12.30;;;11.20;;
65035;SDS011;51603;49.300;8.880;2022-07-22T03:29:51;12.90;;;11.80;;
65035;SDS011;51603;49.300;8.880;2022-07-22T03:32:17;13.13;;;11.93;;
65035;SDS011;51603;49.300;8.880;2022-07-22T03:34:43;12.50;;;11.50;;
65035;SDS011;51603;49.300;8.880;2022-07-22T03:37:09;14.33;;;13.07;;
65035;SDS011;51603;49.300;8.880;2022-07-22T03:39:34;12.50;;;11.40;;
65035;SDS011;51603;49.300;8.880;2022-07-22T03:42:00;12.70;;;11.67;;
65035;SDS011;51603;49.300;8.880;2022-07-22T03:44:25;12.30;;;11.13;;
65035;SDS011;51603;49.300;8.880;2022-07-22T03:46:51;12.80;;;11.70;;
65035;SDS011;51603;49.300;8.880;2022-07-22T03:49:16;13.60;;;12.03;;
65035;SDS011;51603;49.300;8.880;2022-07-22T03:51:42;12.80;;;11.60;;
65035;SDS011;51603;49.300;8.880;2022-07-22T03:54:08;12.80;;;11.60;;
65035;SDS011;51603;49.300;8.880;2022-07-22T03:56:33;12.17;;;11.07;;
65035;SDS011;51603;49.300;8.880;2022-07-22T03:58:59;13.20;;;12.10;;
65035;SDS011;51603;49.300;8.880;2022-07-22T04:01:24;13.13;;;12.00;;
65035;SDS011;51603;49.300;8.880;2022-07-22T04:03:50;12.10;;;11.00;;
65035;SDS011;51603;49.300;8.880;2022-07-22T04:06:16;13.10;;;12.10;;
65035;SDS011;51603;49.300;8.880;2022-07-22T04:08:41;12.40;;;11.20;;
65035;SDS011;51603;49.300;8.880;2022-07-22T04:11:07;13.93;;;12.80;;
65035;SDS011;51603;49.300;8.880;2022-07-22T04:13:32;11.90;;;10.80;;
65035;SDS011;51603;49.300;8.880;2022-07-22T04:15:58;12.63;;;11.33;;
65035;SDS011;51603;49.300;8.880;2022-07-22T04:18:24;11.60;;;10.70;;
65035;SDS011;51603;49.300;8.880;2022-07-22T04:20:49;13.60;;;12.30;;
65035;SDS011;51603;49.300;8.880;2022-07-22T04:23:15;14.10;;;12.80;;
65035;SDS011;51603;49.300;8.880;2022-07-22T04:25:41;13.93;;;12.70;;
65035;SDS011;51603;49.300;8.880;2022-07-22T04:28:06;14.80;;;13.40;;
65035;SDS011;51603;49.300;8.880;2022-07-22T04:30:32;13.40;;;12.30;;
65035;SDS011;51603;49.300;8.880;2022-07-22T04:32:57;13.20;;;12.00;;
65035;SDS011;51603;49.300;8.880;2022-07-22T04:35:23;13.87;;;12.60;;
65035;SDS011;51603;49.300;8.880;2022-07-22T04:37:49;13.20;;;12.10;;
65035;SDS011;51603;49.300;8.880;2022-07-22T04:40:15;14.57;;;13.27;;
65035;SDS011;51603;49.300;8.880;2022-07-22T04:42:40;13.93;;;12.63;;
65035;SDS011;51603;49.300;8.880;2022-07-22T04:45:06;14.30;;;13.10;;
65035;SDS011;51603;49.300;8.880;2022-07-22T04:47:32;14.27;;;13.17;;
65035;SDS011;51603;49.300;8.880;2022-07-22T04:49:57;13.97;;;12.87;;
65035;SDS011;51603;49.300;8.880;2022-07-22T04:52:23;13.07;;;12.10;;
65035;SDS011;51603;49.300;8.880;2022-07-22T04:54:48;14.57;;;13.40;;
65035;SDS011;51603;49.300;8.880;2022-07-22T04:57:14;13.70;;;12.60;;
65035;SDS011;51603;49.300;8.880;2022-07-22T04:59:39;13.50;;;12.30;;
65035;SDS011;51603;49.300;8.880;2022-07-22T05:02:05;14.57;;;13.27;;
65035;SDS011;51603;49.300;8.880;2022-07-22T05:04:31;16.37;;;14.97;;
65035;SDS011;51603;49.300;8.880;2022-07-22T05:06:57;15.10;;;13.80;;
65035;SDS011;51603;49.300;8.880;2022-07-22T05:09:22;14.03;;;12.83;;
65035;SDS011;51603;49.300;8.880;2022-07-22T05:11:48;14.33;;;13.23;;
65035;SDS011;51603;49.300;8.880;2022-07-22T05:14:13;13.60;;;12.37;;
65035;SDS011;51603;49.300;8.880;2022-07-22T05:16:39;15.50;;;14.20;;
65035;SDS011;51603;49.300;8.880;2022-07-22T05:19:04;14.87;;;13.40;;
65035;SDS011;51603;49.300;8.880;2022-07-22T05:21:31;15.10;;;13.70;;
65035;SDS011;51603;49.300;8.880;2022-07-22T05:23:57;15.83;;;14.33;;
65035;SDS011;51603;49.300;8.880;2022-07-22T05:26:23;15.23;;;13.63;;
65035;SDS011;51603;49.300;8.880;2022-07-22T05:28:49;16.60;;;14.87;;
65035;SDS011;51603;49.300;8.880;2022-07-22T05:31:15;15.00;;;13.60;;
65035;SDS011;51603;49.300;8.880;2022-07-22T05:33:40;16.40;;;14.80;;
65035;SDS011;51603;49.300;8.880;2022-07-22T05:36:06;16.80;;;15.30;;
65035;SDS011;51603;49.300;8.880;2022-07-22T05:38:34;15.07;;;13.80;;
65035;SDS011;51603;49.300;8.880;2022-07-22T05:41:00;14.33;;;13.13;;
65035;SDS011;51603;49.300;8.880;2022-07-22T05:43:26;14.83;;;13.60;;
65035;SDS011;51603;49.300;8.880;2022-07-22T05:45:51;14.20;;;13.00;;
65035;SDS011;51603;49.300;8.880;2022-07-22T05:48:17;15.30;;;14.00;;
65035;SDS011;51603;49.300;8.880;2022-07-22T05:50:42;17.20;;;15.63;;
65035;SDS011;51603;49.300;8.880;2022-07-22T05:53:08;16.83;;;15.43;;
65035;SDS011;51603;49.300;8.880;2022-07-22T05:55:33;15.90;;;14.50;;
65035;SDS011;51603;49.300;8.880;2022-07-22T05:57:59;14.93;;;13.60;;
65035;SDS011;51603;49.300;8.880;2022-07-22T06:00:24;16.17;;;14.80;;
65035;SDS011;51603;49.300;8.880;2022-07-22T06:02:50;14.90;;;13.50;;
65035;SDS011;51603;49.300;8.880;2022-07-22T06:05:16;14.97;;;13.67;;
65035;SDS011;51603;49.300;8.880;2022-07-22T06:07:41;16.27;;;14.73;;
65035;SDS011;51603;49.300;8.880;2022-07-22T06:10:07;14.33;;;13.13;;
65035;SDS011;51603;49.300;8.880;2022-07-22T06:12:33;14.47;;;13.27;;
65035;SDS011;51603;49.300;8.880;2022-07-22T06:14:58;16.20;;;14.60;;
65035;SDS011;51603;49.300;8.880;2022-07-22T06:17:24;15.17;;;13.87;;
65035;SDS011;51603;49.300;8.880;2022-07-22T06:19:50;14.13;;;12.93;;
65035;SDS011;51603;49.300;8.880;2022-07-22T06:22:15;15.73;;;14.23;;
65035;SDS011;51603;49.300;8.880;2022-07-22T06:24:42;14.37;;;13.17;;
65035;SDS011;51603;49.300;8.880;2022-07-22T06:27:09;15.17;;;13.80;;
65035;SDS011;51603;49.300;8.880;2022-07-22T06:29:34;15.83;;;13.57;;
65035;SDS011;51603;49.300;8.880;2022-07-22T06:32:00;15.83;;;14.30;;
65035;SDS011;51603;49.300;8.880;2022-07-22T06:34:26;15.50;;;14.20;;
65035;SDS011;51603;49.300;8.880;2022-07-22T06:36:52;14.80;;;13.37;;
65035;SDS011;51603;49.300;8.880;2022-07-22T06:39:17;14.43;;;13.23;;
65035;SDS011;51603;49.300;8.880;2022-07-22T06:41:43;15.30;;;13.77;;
65035;SDS011;51603;49.300;8.880;2022-07-22T06:44:08;14.77;;;13.37;;
65035;SDS011;51603;49.300;8.880;2022-07-22T06:46:34;16.00;;;14.30;;
65035;SDS011;51603;49.300;8.880;2022-07-22T06:48:59;14.80;;;13.50;;
65035;SDS011;51603;49.300;8.880;2022-07-22T06:51:25;13.30;;;12.20;;
65035;SDS011;51603;49.300;8.880;2022-07-22T06:53:50;14.70;;;13.40;;
65035;SDS011;51603;49.300;8.880;2022-07-22T06:56:16;16.63;;;14.90;;
65035;SDS011;51603;49.300;8.880;2022-07-22T06:58:41;13.27;;;12.00;;
65035;SDS011;51603;49.300;8.880;2022-07-22T07:01:07;12.43;;;11.27;;
65035;SDS011;51603;49.300;8.880;2022-07-22T07:03:33;14.07;;;12.87;;
65035;SDS011;51603;49.300;8.880;2022-07-22T07:05:59;13.00;;;11.80;;
65035;SDS011;51603;49.300;8.880;2022-07-22T07:08:25;12.53;;;11.53;;
65035;SDS011;51603;49.300;8.880;2022-07-22T07:10:50;12.27;;;11.20;;
65035;SDS011;51603;49.300;8.880;2022-07-22T07:13:16;11.83;;;10.60;;
65035;SDS011;51603;49.300;8.880;2022-07-22T07:15:41;11.57;;;10.37;;
65035;SDS011;51603;49.300;8.880;2022-07-22T07:18:07;11.80;;;10.80;;
65035;SDS011;51603;49.300;8.880;2022-07-22T07:20:32;13.70;;;12.50;;
65035;SDS011;51603;49.300;8.880;2022-07-22T07:23:01;13.63;;;12.53;;
65035;SDS011;51603;49.300;8.880;2022-07-22T07:25:27;13.57;;;12.30;;
65035;SDS011;51603;49.300;8.880;2022-07-22T07:27:53;11.63;;;10.60;;
65035;SDS011;51603;49.300;8.880;2022-07-22T07:30:18;10.97;;;9.97;;
65035;SDS011;51603;49.300;8.880;2022-07-22T07:32:44;11.53;;;10.33;;
65035;SDS011;51603;49.300;8.880;2022-07-22T07:35:09;13.43;;;12.07;;
65035;SDS011;51603;49.300;8.880;2022-07-22T07:37:35;12.77;;;11.53;;
65035;SDS011;51603;49.300;8.880;2022-07-22T07:40:02;10.53;;;9.53;;
65035;SDS011;51603;49.300;8.880;2022-07-22T07:42:28;11.13;;;10.03;;
65035;SDS011;51603;49.300;8.880;2022-07-22T07:44:54;11.60;;;10.40;;
65035;SDS011;51603;49.300;8.880;2022-07-22T07:47:21;11.60;;;10.60;;
65035;SDS011;51603;49.300;8.880;2022-07-22T07:49:46;11.60;;;10.50;;
65035;SDS011;51603;49.300;8.880;2022-07-22T07:52:13;11.13;;;10.00;;
65035;SDS011;51603;49.300;8.880;2022-07-22T07:54:39;12.60;;;11.30;;
65035;SDS011;51603;49.300;8.880;2022-07-22T07:57:05;10.90;;;9.93;;
65035;SDS011;51603;49.300;8.880;2022-07-22T07:59:32;12.20;;;11.00;;
65035;SDS011;51603;49.300;8.880;2022-07-22T08:01:57;12.47;;;11.20;;
65035;SDS011;51603;49.300;8.880;2022-07-22T08:04:23;10.57;;;9.40;;
65035;SDS011;51603;49.300;8.880;2022-07-22T08:06:49;10.53;;;9.43;;
65035;SDS011;51603;49.300;8.880;2022-07-22T08:09:14;11.30;;;9.60;;
65035;SDS011;51603;49.300;8.880;2022-07-22T08:11:40;10.57;;;9.53;;
65035;SDS011;51603;49.300;8.880;2022-07-22T08:14:05;10.70;;;9.60;;
65035;SDS011;51603;49.300;8.880;2022-07-22T08:16:31;10.27;;;9.30;;
65035;SDS011;51603;49.300;8.880;2022-07-22T08:18:56;11.97;;;10.87;;
65035;SDS011;51603;49.300;8.880;2022-07-22T08:21:22;10.93;;;9.83;;
65035;SDS011;51603;49.300;8.880;2022-07-22T08:23:47;11.23;;;10.23;;
65035;SDS011;51603;49.300;8.880;2022-07-22T08:26:13;11.47;;;10.47;;
65035;SDS011;51603;49.300;8.880;2022-07-22T08:28:39;9.87;;;8.97;;
65035;SDS011;51603;49.300;8.880;2022-07-22T08:31:04;9.63;;;8.83;;
65035;SDS011;51603;49.300;8.880;2022-07-22T08:33:30;10.57;;;9.57;;
65035;SDS011;51603;49.300;8.880;2022-07-22T08:35:55;9.27;;;8.57;;
65035;SDS011;51603;49.300;8.880;2022-07-22T08:38:21;9.40;;;8.50;;
65035;SDS011;51603;49.300;8.880;2022-07-22T08:40:47;10.27;;;9.30;;
65035;SDS011;51603;49.300;8.880;2022-07-22T08:43:13;10.67;;;9.77;;
65035;SDS011;51603;49.300;8.880;2022-07-22T08:45:39;11.40;;;10.33;;
65035;SDS011;51603;49.300;8.880;2022-07-22T08:48:05;9.00;;;8.20;;
65035;SDS011;51603;49.300;8.880;2022-07-22T08:50:31;9.93;;;9.03;;
65035;SDS011;51603;49.300;8.880;2022-07-22T08:52:57;12.13;;;10.87;;
65035;SDS011;51603;49.300;8.880;2022-07-22T08:55:23;9.33;;;8.13;;
65035;SDS011;51603;49.300;8.880;2022-07-22T08:57:49;9.40;;;8.60;;
65035;SDS011;51603;49.300;8.880;2022-07-22T09:00:16;10.87;;;9.47;;
65035;SDS011;51603;49.300;8.880;2022-07-22T09:02:43;8.80;;;8.10;;
65035;SDS011;51603;49.300;8.880;2022-07-22T09:05:10;10.17;;;9.37;;
65035;SDS011;51603;49.300;8.880;2022-07-22T09:07:42;9.30;;;8.50;;
65035;SDS011;51603;49.300;8.880;2022-07-22T09:10:11;9.10;;;8.20;;
65035;SDS011;51603;49.300;8.880;2022-07-22T09:12:59;8.60;;;7.90;;
65035;SDS011;51603;49.300;8.880;2022-07-22T09:15:32;9.47;;;8.57;;
65035;SDS011;51603;49.300;8.880;2022-07-22T09:18:01;9.67;;;8.87;;
65035;SDS011;51603;49.300;8.880;2022-07-22T09:20:27;9.60;;;8.80;;
65035;SDS011;51603;49.300;8.880;2022-07-22T09:22:54;10.03;;;9.13;;
65035;SDS011;51603;49.300;8.880;2022-07-22T09:25:21;9.10;;;8.40;;
65035;SDS011;51603;49.300;8.880;2022-07-22T09:27:53;8.70;;;8.00;;
65035;SDS011;51603;49.300;8.880;2022-07-22T09:30:22;11.67;;;9.10;;
65035;SDS011;51603;49.300;8.880;2022-07-22T09:32:50;10.83;;;9.93;;
65035;SDS011;51603;49.300;8.880;2022-07-22T09:35:17;9.07;;;8.37;;
65035;SDS011;51603;49.300;8.880;2022-07-22T09:38:18;9.23;;;8.43;;
65035;SDS011;51603;49.300;8.880;2022-07-22T09:40:37;9.20;;;8.40;;
65035;SDS011;51603;49.300;8.880;2022-07-22T09:43:06;9.27;;;7.63;;
65035;SDS011;51603;49.300;8.880;2022-07-22T09:45:36;9.67;;;8.63;;
65035;SDS011;51603;49.300;8.880;2022-07-22T09:48:25;9.90;;;9.00;;
65035;SDS011;51603;49.300;8.880;2022-07-22T09:50:51;9.50;;;8.60;;
65035;SDS011;51603;49.300;8.880;2022-07-22T09:53:20;9.30;;;8.33;;
65035;SDS011;51603;49.300;8.880;2022-07-22T09:55:47;13.63;;;8.10;;
65035;SDS011;51603;49.300;8.880;2022-07-22T09:58:13;9.50;;;8.70;;
65035;SDS011;51603;49.300;8.880;2022-07-22T10:00:38;7.90;;;7.30;;
65035;SDS011;51603;49.300;8.880;2022-07-22T10:03:06;8.80;;;7.90;;
65035;SDS011;51603;49.300;8.880;2022-07-22T10:05:41;11.10;;;7.70;;
65035;SDS011;51603;49.300;8.880;2022-07-22T10:08:07;10.30;;;7.77;;
65035;SDS011;51603;49.300;8.880;2022-07-22T10:10:34;9.30;;;8.47;;
65035;SDS011;51603;49.300;8.880;2022-07-22T10:13:01;9.80;;;8.60;;
65035;SDS011;51603;49.300;8.880;2022-07-22T10:15:28;7.77;;;7.13;;
65035;SDS011;51603;49.300;8.880;2022-07-22T10:17:56;9.17;;;8.37;;
65035;SDS011;51603;49.300;8.880;2022-07-22T10:20:27;9.40;;;8.50;;
65035;SDS011;51603;49.300;8.880;2022-07-22T10:22:57;10.90;;;7.57;;
65035;SDS011;51603;49.300;8.880;2022-07-22T10:25:26;9.47;;;7.20;;
65035;SDS011;51603;49.300;8.880;2022-07-22T10:30:53;7.70;;;7.10;;
65035;SDS011;51603;49.300;8.880;2022-07-22T10:33:13;8.30;;;7.47;;
65035;SDS011;51603;49.300;8.880;2022-07-22T10:38:08;9.30;;;8.07;;
65035;SDS011;51603;49.300;8.880;2022-07-22T10:40:45;8.10;;;7.30;;
65035;SDS011;51603;49.300;8.880;2022-07-22T10:43:13;8.83;;;8.03;;
65035;SDS011;51603;49.300;8.880;2022-07-22T10:45:42;7.63;;;7.03;;
65035;SDS011;51603;49.300;8.880;2022-07-22T10:48:12;10.20;;;7.40;;
65035;SDS011;51603;49.300;8.880;2022-07-22T10:50:41;7.30;;;6.70;;
65035;SDS011;51603;49.300;8.880;2022-07-22T10:56:23;7.67;;;6.97;;
65035;SDS011;51603;49.300;8.880;2022-07-22T10:58:58;8.07;;;7.37;;
65035;SDS011;51603;49.300;8.880;2022-07-22T11:01:29;7.60;;;7.00;;
65035;SDS011;51603;49.300;8.880;2022-07-22T11:04:06;8.90;;;6.97;;
65035;SDS011;51603;49.300;8.880;2022-07-22T11:06:40;7.70;;;7.00;;
65035;SDS011;51603;49.300;8.880;2022-07-22T11:09:07;8.23;;;7.40;;
65035;SDS011;51603;49.300;8.880;2022-07-22T11:11:39;8.23;;;7.53;;
65035;SDS011;51603;49.300;8.880;2022-07-22T11:14:13;7.93;;;7.17;;
65035;SDS011;51603;49.300;8.880;2022-07-22T11:16:40;8.00;;;7.20;;
65035;SDS011;51603;49.300;8.880;2022-07-22T11:19:06;7.67;;;6.97;;
65035;SDS011;51603;49.300;8.880;2022-07-22T11:21:32;6.90;;;6.27;;
65035;SDS011;51603;49.300;8.880;2022-07-22T11:23:59;7.50;;;6.67;;
65035;SDS011;51603;49.300;8.880;2022-07-22T11:26:45;8.00;;;7.17;;
65035;SDS011;51603;49.300;8.880;2022-07-22T11:29:27;11.20;;;6.97;;
65035;SDS011;51603;49.300;8.880;2022-07-22T11:32:05;7.53;;;6.93;;
65035;SDS011;51603;49.300;8.880;2022-07-22T11:34:32;6.77;;;6.10;;
65035;SDS011;51603;49.300;8.880;2022-07-22T11:36:58;7.80;;;7.20;;
65035;SDS011;51603;49.300;8.880;2022-07-22T11:39:24;7.43;;;6.83;;
65035;SDS011;51603;49.300;8.880;2022-07-22T11:41:52;7.90;;;6.70;;
65035;SDS011;51603;49.300;8.880;2022-07-22T11:44:20;7.20;;;6.50;;
65035;SDS011;51603;49.300;8.880;2022-07-22T11:46:47;7.73;;;7.13;;
65035;SDS011;51603;49.300;8.880;2022-07-22T11:49:14;7.70;;;7.00;;
65035;SDS011;51603;49.300;8.880;2022-07-22T11:51:41;7.10;;;6.40;;
65035;SDS011;51603;49.300;8.880;2022-07-22T11:54:07;6.87;;;6.07;;
65035;SDS011;51603;49.300;8.880;2022-07-22T11:56:33;7.10;;;6.60;;
65035;SDS011;51603;49.300;8.880;2022-07-22T11:59:00;7.43;;;6.90;;
65035;SDS011;51603;49.300;8.880;2022-07-22T12:01:34;7.40;;;6.70;;
65035;SDS011;51603;49.300;8.880;2022-07-22T12:04:05;7.03;;;6.40;;
65035;SDS011;51603;49.300;8.880;2022-07-22T12:06:36;7.60;;;6.90;;
65035;SDS011;51603;49.300;8.880;2022-07-22T12:11:34;7.30;;;6.70;;
65035;SDS011;51603;49.300;8.880;2022-07-22T12:14:08;6.43;;;5.93;;
65035;SDS011;51603;49.300;8.880;2022-07-22T12:16:36;8.27;;;6.43;;
65035;SDS011;51603;49.300;8.880;2022-07-22T12:19:04;6.67;;;6.07;;
65035;SDS011;51603;49.300;8.880;2022-07-22T12:21:58;6.80;;;6.30;;
65035;SDS011;51603;49.300;8.880;2022-07-22T12:24:33;7.27;;;6.77;;
65035;SDS011;51603;49.300;8.880;2022-07-22T12:27:07;7.40;;;6.67;;
65035;SDS011;51603;49.300;8.880;2022-07-22T12:29:42;7.77;;;6.57;;
65035;SDS011;51603;49.300;8.880;2022-07-22T12:32:24;6.93;;;6.43;;
65035;SDS011;51603;49.300;8.880;2022-07-22T12:35:01;5.63;;;5.13;;
65035;SDS011;51603;49.300;8.880;2022-07-22T12:37:43;6.60;;;6.10;;
65035;SDS011;51603;49.300;8.880;2022-07-22T12:40:11;7.27;;;6.50;;
65035;SDS011;51603;49.300;8.880;2022-07-22T12:42:43;7.30;;;6.60;;
65035;SDS011;51603;49.300;8.880;2022-07-22T12:45:10;6.73;;;6.20;;
65035;SDS011;51603;49.300;8.880;2022-07-22T12:47:40;6.77;;;6.17;;
65035;SDS011;51603;49.300;8.880;2022-07-22T12:50:25;6.80;;;6.10;;
65035;SDS011;51603;49.300;8.880;2022-07-22T12:52:55;6.17;;;5.70;;
65035;SDS011;51603;49.300;8.880;2022-07-22T12:55:25;6.60;;;6.10;;
65035;SDS011;51603;49.300;8.880;2022-07-22T12:57:51;6.47;;;5.97;;
65035;SDS011;51603;49.300;8.880;2022-07-22T13:00:22;7.00;;;6.40;;
65035;SDS011;51603;49.300;8.880;2022-07-22T13:02:52;6.40;;;5.90;;
65035;SDS011;51603;49.300;8.880;2022-07-22T13:05:19;6.60;;;6.10;;
65035;SDS011;51603;49.300;8.880;2022-07-22T13:07:45;6.90;;;6.30;;
65035;SDS011;51603;49.300;8.880;2022-07-22T13:10:11;6.63;;;6.03;;
65035;SDS011;51603;49.300;8.880;2022-07-22T13:12:39;6.03;;;5.63;;
65035;SDS011;51603;49.300;8.880;2022-07-22T13:15:05;8.93;;;5.87;;
65035;SDS011;51603;49.300;8.880;2022-07-22T13:17:30;6.40;;;5.90;;
65035;SDS011;51603;49.300;8.880;2022-07-22T13:19:56;6.90;;;6.40;;
65035;SDS011;51603;49.300;8.880;2022-07-22T13:22:22;6.40;;;5.70;;
65035;SDS011;51603;49.300;8.880;2022-07-22T13:24:47;5.80;;;5.03;;
65035;SDS011;51603;49.300;8.880;2022-07-22T13:27:13;6.20;;;5.70;;
65035;SDS011;51603;49.300;8.880;2022-07-22T13:29:38;6.20;;;5.70;;
65035;SDS011;51603;49.300;8.880;2022-07-22T13:32:04;5.93;;;5.43;;
65035;SDS011;51603;49.300;8.880;2022-07-22T13:34:30;5.93;;;5.40;;
65035;SDS011;51603;49.300;8.880;2022-07-22T13:36:56;6.53;;;6.03;;
65035;SDS011;51603;49.300;8.880;2022-07-22T13:39:22;6.00;;;5.60;;
65035;SDS011;51603;49.300;8.880;2022-07-22T13:41:47;6.37;;;5.77;;
65035;SDS011;51603;49.300;8.880;2022-07-22T13:44:13;5.90;;;5.30;;
65035;SDS011;51603;49.300;8.880;2022-07-22T13:46:38;5.63;;;5.13;;
65035;SDS011;51603;49.300;8.880;2022-07-22T13:49:04;6.30;;;5.77;;
65035;SDS011;51603;49.300;8.880;2022-07-22T13:51:29;6.40;;;5.90;;
65035;SDS011;51603;49.300;8.880;2022-07-22T13:53:56;5.77;;;5.27;;
65035;SDS011;51603;49.300;8.880;2022-07-22T13:56:21;6.60;;;5.70;;
65035;SDS011;51603;49.300;8.880;2022-07-22T13:58:47;8.17;;;5.37;;
65035;SDS011;51603;49.300;8.880;2022-07-22T14:01:13;5.87;;;5.37;;
65035;SDS011;51603;49.300;8.880;2022-07-22T14:03:38;6.63;;;6.00;;
65035;SDS011;51603;49.300;8.880;2022-07-22T14:06:04;7.43;;;5.60;;
65035;SDS011;51603;49.300;8.880;2022-07-22T14:08:30;5.70;;;5.20;;
65035;SDS011;51603;49.300;8.880;2022-07-22T14:10:57;6.17;;;5.63;;
65035;SDS011;51603;49.300;8.880;2022-07-22T14:13:23;6.63;;;5.87;;
65035;SDS011;51603;49.300;8.880;2022-07-22T14:15:49;5.40;;;4.97;;
65035;SDS011;51603;49.300;8.880;2022-07-22T14:18:14;6.47;;;5.83;;
65035;SDS011;51603;49.300;8.880;2022-07-22T14:20:40;6.23;;;5.73;;
65035;SDS011;51603;49.300;8.880;2022-07-22T14:23:06;6.50;;;5.90;;
65035;SDS011;51603;49.300;8.880;2022-07-22T14:25:34;5.80;;;5.27;;
65035;SDS011;51603;49.300;8.880;2022-07-22T14:28:01;6.40;;;5.20;;
65035;SDS011;51603;49.300;8.880;2022-07-22T14:30:26;7.13;;;5.87;;
65035;SDS011;51603;49.300;8.880;2022-07-22T14:32:53;6.33;;;5.83;;
65035;SDS011;51603;49.300;8.880;2022-07-22T14:35:19;5.37;;;4.87;;
65035;SDS011;51603;49.300;8.880;2022-07-22T14:37:44;6.10;;;5.30;;
65035;SDS011;51603;49.300;8.880;2022-07-22T14:40:10;6.93;;;6.23;;
65035;SDS011;51603;49.300;8.880;2022-07-22T14:42:36;6.80;;;5.10;;
65035;SDS011;51603;49.300;8.880;2022-07-22T14:45:01;5.70;;;5.20;;
65035;SDS011;51603;49.300;8.880;2022-07-22T14:47:29;6.60;;;6.00;;